sensor_id;sensor_type;location;lat;lon;timestamp;pressure;altitude;pressure_sealevel;temperature;humidity
57847;BME280;43675;50.030;21.952;2024-01-11T00:12:07;99765.23;;;-10.75;76.86
57847;BME280;43675;50.030;21.952;2024-01-11T00:15:14;99763.92;;;-10.73;77.04
57847;BME280;43675;50.030;21.952;2024-01-11T00:18:21;99763.84;;;-10.66;77.21
57847;BME280;43675;50.030;21.952;2024-01-11T00:27:36;99763.38;;;-10.35;77.15
57847;BME280;43675;50.030;21.952;2024-01-11T00:30:43;99759.37;;;-10.21;77.13
57847;BME280;43675;50.030;21.952;2024-01-11T00:33:32;99759.96;;;-10.10;77.03
57847;BME280;43675;50.030;21.952;2024-01-11T00:52:05;99735.35;;;-9.50;76.83
57847;BME280;43675;50.030;21.952;2024-01-11T01:23:10;99703.35;;;-8.77;75.90
57847;BME280;43675;50.030;21.952;2024-01-11T01:32:38;99697.91;;;-8.68;75.64
57847;BME280;43675;50.030;21.952;2024-01-11T01:35:34;99693.48;;;-8.66;75.59
57847;BME280;43675;50.030;21.952;2024-01-11T01:38:15;99695.21;;;-8.66;75.63
57847;BME280;43675;50.030;21.952;2024-01-11T01:44:38;99691.21;;;-8.70;75.65
57847;BME280;43675;50.030;21.952;2024-01-11T01:54:02;99682.14;;;-8.76;75.55
57847;BME280;43675;50.030;21.952;2024-01-11T02:00:16;99682.97;;;-8.83;75.37
57847;BME280;43675;50.030;21.952;2024-01-11T02:12:22;99683.05;;;-9.03;75.40
57847;BME280;43675;50.030;21.952;2024-01-11T02:15:21;99689.45;;;-9.07;75.52
57847;BME280;43675;50.030;21.952;2024-01-11T02:24:46;99682.12;;;-9.18;75.63
57847;BME280;43675;50.030;21.952;2024-01-11T02:27:53;99684.32;;;-9.20;75.69
57847;BME280;43675;50.030;21.952;2024-01-11T02:30:50;99676.61;;;-9.22;75.76
57847;BME280;43675;50.030;21.952;2024-01-11T02:49:24;99641.98;;;-9.12;75.96
57847;BME280;43675;50.030;21.952;2024-01-11T02:55:40;99635.09;;;-9.05;76.02
57847;BME280;43675;50.030;21.952;2024-01-11T03:07:52;99608.33;;;-8.96;75.66
57847;BME280;43675;50.030;21.952;2024-01-11T03:11:06;99608.52;;;-9.00;75.68
57847;BME280;43675;50.030;21.952;2024-01-11T03:14:13;99610.19;;;-9.02;75.64
57847;BME280;43675;50.030;21.952;2024-01-11T03:20:27;99614.14;;;-9.05;75.81
57847;BME280;43675;50.030;21.952;2024-01-11T03:23:34;99605.64;;;-9.09;75.73
57847;BME280;43675;50.030;21.952;2024-01-11T03:26:41;99603.11;;;-9.15;75.51
57847;BME280;43675;50.030;21.952;2024-01-11T03:32:26;99600.57;;;-9.31;75.38
57847;BME280;43675;50.030;21.952;2024-01-11T03:44:32;99565.41;;;-9.59;75.70
57847;BME280;43675;50.030;21.952;2024-01-11T04:03:21;99562.17;;;-9.10;76.38
57847;BME280;43675;50.030;21.952;2024-01-11T04:09:28;99553.91;;;-8.57;76.01
57847;BME280;43675;50.030;21.952;2024-01-11T04:12:08;99542.45;;;-8.39;75.50
57847;BME280;43675;50.030;21.952;2024-01-11T04:15:16;99544.27;;;-8.24;75.34
57847;BME280;43675;50.030;21.952;2024-01-11T04:18:23;99546.73;;;-8.22;75.27
57847;BME280;43675;50.030;21.952;2024-01-11T04:21:31;99544.71;;;-8.26;75.31
57847;BME280;43675;50.030;21.952;2024-01-11T04:42:56;99516.96;;;-8.36;75.06
57847;BME280;43675;50.030;21.952;2024-01-11T04:58:32;99468.89;;;-8.33;74.34
57847;BME280;43675;50.030;21.952;2024-01-11T05:04:28;99475.47;;;-8.13;74.29
57847;BME280;43675;50.030;21.952;2024-01-11T05:13:33;99486.14;;;-7.91;74.47
57847;BME280;43675;50.030;21.952;2024-01-11T05:16:26;99488.91;;;-7.87;74.49
57847;BME280;43675;50.030;21.952;2024-01-11T05:32:08;99484.48;;;-7.80;74.08
57847;BME280;43675;50.030;21.952;2024-01-11T06:05:49;99432.72;;;-5.95;73.18
57847;BME280;43675;50.030;21.952;2024-01-11T06:12:03;99414.95;;;-5.76;72.87
57847;BME280;43675;50.030;21.952;2024-01-11T06:15:11;99408.18;;;-5.62;72.81
57847;BME280;43675;50.030;21.952;2024-01-11T06:26:50;99364.22;;;-5.05;71.79
57847;BME280;43675;50.030;21.952;2024-01-11T06:29:58;99360.50;;;-4.94;71.55
57847;BME280;43675;50.030;21.952;2024-01-11T06:33:05;99359.50;;;-4.79;71.20
57847;BME280;43675;50.030;21.952;2024-01-11T06:38:36;99340.16;;;-4.51;70.97
57847;BME280;43675;50.030;21.952;2024-01-11T06:50:21;99311.98;;;-3.98;69.64
57847;BME280;43675;50.030;21.952;2024-01-11T06:53:16;99298.61;;;-3.72;69.17
57847;BME280;43675;50.030;21.952;2024-01-11T07:02:27;99321.81;;;-3.36;68.00
57847;BME280;43675;50.030;21.952;2024-01-11T07:05:19;99325.77;;;-3.25;67.36
57847;BME280;43675;50.030;21.952;2024-01-11T07:08:26;99326.60;;;-3.10;67.55
57847;BME280;43675;50.030;21.952;2024-01-11T07:14:25;99328.14;;;-2.75;66.26
57847;BME280;43675;50.030;21.952;2024-01-11T07:17:34;99333.48;;;-2.60;66.29
57847;BME280;43675;50.030;21.952;2024-01-11T07:20:23;99331.33;;;-2.43;66.06
57847;BME280;43675;50.030;21.952;2024-01-11T07:35:26;99301.20;;;-1.66;63.64
57847;BME280;43675;50.030;21.952;2024-01-11T07:38:08;99305.77;;;-1.55;63.03
57847;BME280;43675;50.030;21.952;2024-01-11T07:40:41;99303.64;;;-1.49;62.29
57847;BME280;43675;50.030;21.952;2024-01-11T07:49:55;99301.88;;;-1.39;60.55
57847;BME280;43675;50.030;21.952;2024-01-11T07:52:21;99309.73;;;-1.39;60.39
57847;BME280;43675;50.030;21.952;2024-01-11T07:54:48;99327.69;;;-1.42;59.64
57847;BME280;43675;50.030;21.952;2024-01-11T08:00:07;99321.05;;;-1.56;59.17
57847;BME280;43675;50.030;21.952;2024-01-11T08:08:45;99330.09;;;-1.65;56.85
57847;BME280;43675;50.030;21.952;2024-01-11T08:11:14;99332.50;;;-1.67;56.14
57847;BME280;43675;50.030;21.952;2024-01-11T08:14:01;99321.77;;;-1.71;55.51
57847;BME280;43675;50.030;21.952;2024-01-11T08:16:28;99321.27;;;-1.71;55.83
57847;BME280;43675;50.030;21.952;2024-01-11T08:18:55;99319.56;;;-1.68;55.58
57847;BME280;43675;50.030;21.952;2024-01-11T08:24:09;99318.77;;;-1.72;54.71
57847;BME280;43675;50.030;21.952;2024-01-11T08:27:01;99309.55;;;-1.71;54.52
57847;BME280;43675;50.030;21.952;2024-01-11T08:29:54;99309.48;;;-1.68;54.52
57847;BME280;43675;50.030;21.952;2024-01-11T08:32:44;99301.52;;;-1.61;54.72
57847;BME280;43675;50.030;21.952;2024-01-11T08:35:37;99302.52;;;-1.50;55.39
57847;BME280;43675;50.030;21.952;2024-01-11T08:38:09;99297.89;;;-1.34;55.94
57847;BME280;43675;50.030;21.952;2024-01-11T08:43:27;99284.08;;;-1.07;55.13
57847;BME280;43675;50.030;21.952;2024-01-11T08:45:54;99270.77;;;-0.93;55.42
57847;BME280;43675;50.030;21.952;2024-01-11T08:48:21;99247.43;;;-0.77;54.53
57847;BME280;43675;50.030;21.952;2024-01-11T08:50:48;99236.17;;;-0.54;53.93
57847;BME280;43675;50.030;21.952;2024-01-11T08:53:24;99232.81;;;-0.39;53.34
57847;BME280;43675;50.030;21.952;2024-01-11T08:55:51;99233.20;;;-0.44;53.11
57847;BME280;43675;50.030;21.952;2024-01-11T08:58:25;99228.69;;;-0.44;53.33
57847;BME280;43675;50.030;21.952;2024-01-11T09:00:55;99223.48;;;-0.45;53.04
57847;BME280;43675;50.030;21.952;2024-01-11T09:03:31;99223.80;;;-0.43;53.61
57847;BME280;43675;50.030;21.952;2024-01-11T09:05:57;99232.58;;;-0.43;53.03
57847;BME280;43675;50.030;21.952;2024-01-11T09:08:32;99236.63;;;-0.45;52.41
57847;BME280;43675;50.030;21.952;2024-01-11T09:10:59;99234.63;;;-0.48;52.41
57847;BME280;43675;50.030;21.952;2024-01-11T09:13:29;99242.55;;;-0.51;53.55
57847;BME280;43675;50.030;21.952;2024-01-11T09:15:56;99247.64;;;-0.59;52.70
57847;BME280;43675;50.030;21.952;2024-01-11T09:18:25;99246.52;;;-0.64;52.23
57847;BME280;43675;50.030;21.952;2024-01-11T09:21:01;99240.54;;;-0.68;52.39
57847;BME280;43675;50.030;21.952;2024-01-11T09:23:31;99226.31;;;-0.72;52.60
57847;BME280;43675;50.030;21.952;2024-01-11T09:28:35;99214.65;;;-0.75;52.77
57847;BME280;43675;50.030;21.952;2024-01-11T09:31:04;99214.36;;;-0.74;53.08
57847;BME280;43675;50.030;21.952;2024-01-11T09:33:40;99220.96;;;-0.71;53.19
57847;BME280;43675;50.030;21.952;2024-01-11T09:36:26;99212.45;;;-0.62;52.48
57847;BME280;43675;50.030;21.952;2024-01-11T09:38:56;99211.17;;;-0.45;53.28
57847;BME280;43675;50.030;21.952;2024-01-11T09:41:28;99207.45;;;-0.29;53.54
57847;BME280;43675;50.030;21.952;2024-01-11T09:44:09;99208.00;;;-0.17;52.83
57847;BME280;43675;50.030;21.952;2024-01-11T09:46:39;99208.09;;;-0.11;52.18
57847;BME280;43675;50.030;21.952;2024-01-11T09:49:28;99212.94;;;-0.09;50.01
57847;BME280;43675;50.030;21.952;2024-01-11T09:51:54;99206.38;;;-0.11;49.28
57847;BME280;43675;50.030;21.952;2024-01-11T09:54:30;99210.73;;;-0.12;48.57
57847;BME280;43675;50.030;21.952;2024-01-11T09:57:01;99212.41;;;-0.21;47.96
57847;BME280;43675;50.030;21.952;2024-01-11T09:59:58;99210.41;;;-0.32;47.53
57847;BME280;43675;50.030;21.952;2024-01-11T10:03:06;99214.95;;;-0.38;48.38
57847;BME280;43675;50.030;21.952;2024-01-11T10:05:34;99213.33;;;-0.37;48.85
57847;BME280;43675;50.030;21.952;2024-01-11T10:08:11;99213.77;;;-0.35;48.72
57847;BME280;43675;50.030;21.952;2024-01-11T10:14:03;99223.18;;;-0.50;49.89
57847;BME280;43675;50.030;21.952;2024-01-11T10:16:41;99216.69;;;-0.52;50.53
57847;BME280;43675;50.030;21.952;2024-01-11T10:19:50;99223.39;;;-0.52;50.34
57847;BME280;43675;50.030;21.952;2024-01-11T10:25:23;99215.48;;;-0.42;51.12
57847;BME280;43675;50.030;21.952;2024-01-11T10:28:13;99222.14;;;-0.44;50.31
57847;BME280;43675;50.030;21.952;2024-01-11T10:30:43;99242.83;;;-0.50;50.22
57847;BME280;43675;50.030;21.952;2024-01-11T10:33:12;99242.67;;;-0.62;50.06
57847;BME280;43675;50.030;21.952;2024-01-11T10:38:52;99245.91;;;-0.90;50.63
57847;BME280;43675;50.030;21.952;2024-01-11T10:41:40;99252.77;;;-0.94;50.91
57847;BME280;43675;50.030;21.952;2024-01-11T10:47:19;99224.03;;;-0.94;51.28
57847;BME280;43675;50.030;21.952;2024-01-11T10:50:01;99213.86;;;-0.97;51.71
57847;BME280;43675;50.030;21.952;2024-01-11T10:53:23;99212.67;;;-0.98;51.89
57847;BME280;43675;50.030;21.952;2024-01-11T10:55:38;99199.48;;;-0.89;52.07
57847;BME280;43675;50.030;21.952;2024-01-11T10:58:18;99202.77;;;-0.78;51.72
57847;BME280;43675;50.030;21.952;2024-01-11T11:01:28;99192.80;;;-0.81;52.01
57847;BME280;43675;50.030;21.952;2024-01-11T11:03:54;99194.97;;;-0.85;52.17
57847;BME280;43675;50.030;21.952;2024-01-11T11:06:35;99189.64;;;-0.91;51.85
57847;BME280;43675;50.030;21.952;2024-01-11T11:12:09;99193.16;;;-1.08;52.20
57847;BME280;43675;50.030;21.952;2024-01-11T11:15:01;99188.13;;;-1.14;52.22
57847;BME280;43675;50.030;21.952;2024-01-11T11:17:38;99196.31;;;-1.18;52.13
57847;BME280;43675;50.030;21.952;2024-01-11T11:20:26;99204.59;;;-1.27;52.25
57847;BME280;43675;50.030;21.952;2024-01-11T11:23:27;99202.67;;;-1.31;52.42
57847;BME280;43675;50.030;21.952;2024-01-11T11:26:13;99189.77;;;-1.36;52.40
57847;BME280;43675;50.030;21.952;2024-01-11T11:28:49;99186.38;;;-1.37;52.80
57847;BME280;43675;50.030;21.952;2024-01-11T11:31:46;99180.63;;;-1.25;52.69
57847;BME280;43675;50.030;21.952;2024-01-11T11:34:47;99178.83;;;-1.25;52.66
57847;BME280;43675;50.030;21.952;2024-01-11T11:38:00;99162.23;;;-1.38;52.91
57847;BME280;43675;50.030;21.952;2024-01-11T11:40:52;99153.30;;;-1.49;53.51
57847;BME280;43675;50.030;21.952;2024-01-11T11:44:01;99152.77;;;-1.56;53.75
57847;BME280;43675;50.030;21.952;2024-01-11T11:46:58;99148.44;;;-1.66;53.79
57847;BME280;43675;50.030;21.952;2024-01-11T11:52:48;99132.42;;;-1.74;54.01
57847;BME280;43675;50.030;21.952;2024-01-11T11:55:42;99138.14;;;-1.69;54.13
57847;BME280;43675;50.030;21.952;2024-01-11T12:01:09;99129.17;;;-1.79;54.28
57847;BME280;43675;50.030;21.952;2024-01-11T12:07:00;99118.66;;;-1.97;55.42
57847;BME280;43675;50.030;21.952;2024-01-11T12:10:01;99114.35;;;-2.02;56.20
57847;BME280;43675;50.030;21.952;2024-01-11T12:12:57;99111.30;;;-2.01;56.70
57847;BME280;43675;50.030;21.952;2024-01-11T12:21:49;99098.64;;;-2.09;57.46
57847;BME280;43675;50.030;21.952;2024-01-11T12:24:15;99086.79;;;-2.12;57.60
57847;BME280;43675;50.030;21.952;2024-01-11T12:26:53;99083.22;;;-2.13;57.86
57847;BME280;43675;50.030;21.952;2024-01-11T12:29:30;99068.67;;;-2.05;57.57
57847;BME280;43675;50.030;21.952;2024-01-11T12:32:39;99065.11;;;-1.90;57.42
57847;BME280;43675;50.030;21.952;2024-01-11T12:35:08;99060.44;;;-1.88;57.05
57847;BME280;43675;50.030;21.952;2024-01-11T12:37:56;99056.39;;;-1.86;56.92
57847;BME280;43675;50.030;21.952;2024-01-11T12:40:36;99065.71;;;-1.86;57.29
57847;BME280;43675;50.030;21.952;2024-01-11T12:43:11;99054.15;;;-1.93;57.29
57847;BME280;43675;50.030;21.952;2024-01-11T12:45:41;99046.43;;;-1.99;57.57
57847;BME280;43675;50.030;21.952;2024-01-11T12:48:11;99060.15;;;-2.04;58.08
57847;BME280;43675;50.030;21.952;2024-01-11T12:50:58;99056.36;;;-2.13;58.30
57847;BME280;43675;50.030;21.952;2024-01-11T12:53:46;99045.63;;;-2.17;58.20
57847;BME280;43675;50.030;21.952;2024-01-11T12:56:14;99043.80;;;-2.20;58.48
57847;BME280;43675;50.030;21.952;2024-01-11T12:58:45;99044.70;;;-2.12;57.88
57847;BME280;43675;50.030;21.952;2024-01-11T13:01:22;99047.18;;;-2.06;58.24
57847;BME280;43675;50.030;21.952;2024-01-11T13:03:57;99047.40;;;-2.06;58.16
57847;BME280;43675;50.030;21.952;2024-01-11T13:06:30;99050.27;;;-2.15;58.50
57847;BME280;43675;50.030;21.952;2024-01-11T13:09:14;99048.23;;;-2.19;58.54
57847;BME280;43675;50.030;21.952;2024-01-11T13:11:44;99047.34;;;-2.16;59.05
57847;BME280;43675;50.030;21.952;2024-01-11T13:14:33;99039.19;;;-2.11;58.96
57847;BME280;43675;50.030;21.952;2024-01-11T13:17:09;99036.76;;;-2.07;58.85
57847;BME280;43675;50.030;21.952;2024-01-11T13:19:36;99042.16;;;-2.00;59.11
57847;BME280;43675;50.030;21.952;2024-01-11T13:22:10;99035.05;;;-2.01;59.46
57847;BME280;43675;50.030;21.952;2024-01-11T13:24:40;99029.58;;;-2.05;59.58
57847;BME280;43675;50.030;21.952;2024-01-11T13:27:09;99022.56;;;-2.03;59.68
57847;BME280;43675;50.030;21.952;2024-01-11T13:29:54;99018.52;;;-2.03;59.61
57847;BME280;43675;50.030;21.952;2024-01-11T13:32:24;99026.02;;;-2.07;59.56
57847;BME280;43675;50.030;21.952;2024-01-11T13:34:50;99018.21;;;-2.10;59.99
57847;BME280;43675;50.030;21.952;2024-01-11T13:37:20;99015.63;;;-2.14;59.91
57847;BME280;43675;50.030;21.952;2024-01-11T13:40:00;99017.09;;;-2.19;60.40
57847;BME280;43675;50.030;21.952;2024-01-11T13:42:33;99014.11;;;-2.25;60.41
57847;BME280;43675;50.030;21.952;2024-01-11T13:45:09;99008.80;;;-2.29;61.05
57847;BME280;43675;50.030;21.952;2024-01-11T13:47:42;99011.77;;;-2.33;61.59
57847;BME280;43675;50.030;21.952;2024-01-11T13:53:03;99009.33;;;-2.50;63.66
57847;BME280;43675;50.030;21.952;2024-01-11T13:58:26;99014.45;;;-2.68;65.60
57847;BME280;43675;50.030;21.952;2024-01-11T14:03:51;99013.05;;;-2.90;67.56
57847;BME280;43675;50.030;21.952;2024-01-11T14:09:17;99016.88;;;-3.05;68.45
57847;BME280;43675;50.030;21.952;2024-01-11T14:11:47;99017.73;;;-3.05;68.85
57847;BME280;43675;50.030;21.952;2024-01-11T14:14:22;99019.70;;;-3.10;69.08
57847;BME280;43675;50.030;21.952;2024-01-11T14:16:58;99021.15;;;-3.13;69.17
57847;BME280;43675;50.030;21.952;2024-01-11T14:19:37;99026.42;;;-3.15;69.44
57847;BME280;43675;50.030;21.952;2024-01-11T14:22:07;99033.81;;;-3.17;69.77
57847;BME280;43675;50.030;21.952;2024-01-11T14:24:46;99038.66;;;-3.19;70.44
57847;BME280;43675;50.030;21.952;2024-01-11T14:30:31;99042.83;;;-3.28;71.38
57847;BME280;43675;50.030;21.952;2024-01-11T14:33:00;99053.65;;;-3.34;71.68
57847;BME280;43675;50.030;21.952;2024-01-11T14:35:34;99049.89;;;-3.40;72.24
57847;BME280;43675;50.030;21.952;2024-01-11T14:38:06;99051.02;;;-3.48;72.84
57847;BME280;43675;50.030;21.952;2024-01-11T14:40:33;99056.14;;;-3.51;73.56
57847;BME280;43675;50.030;21.952;2024-01-11T14:43:03;99054.55;;;-3.55;73.81
57847;BME280;43675;50.030;21.952;2024-01-11T14:45:40;99057.73;;;-3.60;74.27
57847;BME280;43675;50.030;21.952;2024-01-11T14:48:09;99057.36;;;-3.62;74.54
57847;BME280;43675;50.030;21.952;2024-01-11T14:50:38;99058.95;;;-3.64;74.74
57847;BME280;43675;50.030;21.952;2024-01-11T14:53:05;99060.94;;;-3.67;75.10
57847;BME280;43675;50.030;21.952;2024-01-11T14:55:34;99054.48;;;-3.70;75.49
57847;BME280;43675;50.030;21.952;2024-01-11T14:58:05;99051.87;;;-3.70;75.92
57847;BME280;43675;50.030;21.952;2024-01-11T15:03:28;99050.55;;;-3.71;75.92
57847;BME280;43675;50.030;21.952;2024-01-11T15:06:17;99054.03;;;-3.71;76.09
57847;BME280;43675;50.030;21.952;2024-01-11T15:08:55;99060.73;;;-3.71;76.34
57847;BME280;43675;50.030;21.952;2024-01-11T15:11:22;99058.30;;;-3.74;76.55
57847;BME280;43675;50.030;21.952;2024-01-11T15:13:49;99054.64;;;-3.74;76.74
57847;BME280;43675;50.030;21.952;2024-01-11T15:16:18;99047.66;;;-3.74;77.12
57847;BME280;43675;50.030;21.952;2024-01-11T15:18:48;99051.45;;;-3.73;77.26
57847;BME280;43675;50.030;21.952;2024-01-11T15:21:17;99044.60;;;-3.71;77.15
57847;BME280;43675;50.030;21.952;2024-01-11T15:23:44;99043.52;;;-3.73;77.33
57847;BME280;43675;50.030;21.952;2024-01-11T15:26:13;99043.41;;;-3.74;77.43
57847;BME280;43675;50.030;21.952;2024-01-11T15:28:49;99035.29;;;-3.77;77.67
57847;BME280;43675;50.030;21.952;2024-01-11T15:31:16;99034.52;;;-3.78;77.95
57847;BME280;43675;50.030;21.952;2024-01-11T15:33:43;99032.64;;;-3.79;77.83
57847;BME280;43675;50.030;21.952;2024-01-11T15:36:13;99034.60;;;-3.77;77.83
57847;BME280;43675;50.030;21.952;2024-01-11T15:38:54;99034.97;;;-3.77;77.84
57847;BME280;43675;50.030;21.952;2024-01-11T15:41:21;99035.28;;;-3.77;77.87
57847;BME280;43675;50.030;21.952;2024-01-11T15:43:47;99031.06;;;-3.74;77.84
57847;BME280;43675;50.030;21.952;2024-01-11T15:46:15;99028.56;;;-3.74;77.89
57847;BME280;43675;50.030;21.952;2024-01-11T15:48:42;99029.22;;;-3.73;77.96
57847;BME280;43675;50.030;21.952;2024-01-11T15:51:20;99023.61;;;-3.71;78.05
57847;BME280;43675;50.030;21.952;2024-01-11T15:54:08;99023.92;;;-3.68;77.85
57847;BME280;43675;50.030;21.952;2024-01-11T15:56:33;99014.73;;;-3.51;77.80
57847;BME280;43675;50.030;21.952;2024-01-11T15:59:00;99014.34;;;-3.37;77.53
57847;BME280;43675;50.030;21.952;2024-01-11T16:01:34;99014.70;;;-3.28;77.18
57847;BME280;43675;50.030;21.952;2024-01-11T16:04:02;99014.53;;;-3.19;77.08
57847;BME280;43675;50.030;21.952;2024-01-11T16:06:28;99019.69;;;-3.14;77.28
57847;BME280;43675;50.030;21.952;2024-01-11T16:08:55;99024.02;;;-3.09;77.14
57847;BME280;43675;50.030;21.952;2024-01-11T16:11:22;99025.50;;;-3.03;77.07
57847;BME280;43675;50.030;21.952;2024-01-11T16:13:59;99029.20;;;-2.99;77.06
57847;BME280;43675;50.030;21.952;2024-01-11T16:16:33;99027.79;;;-3.03;77.24
57847;BME280;43675;50.030;21.952;2024-01-11T16:21:49;99018.55;;;-3.19;77.44
57847;BME280;43675;50.030;21.952;2024-01-11T16:24:16;99018.63;;;-3.27;77.41
57847;BME280;43675;50.030;21.952;2024-01-11T16:26:45;99026.08;;;-3.37;77.71
57847;BME280;43675;50.030;21.952;2024-01-11T16:29:23;99024.98;;;-3.41;77.77
57847;BME280;43675;50.030;21.952;2024-01-11T16:31:50;99024.41;;;-3.36;77.98
57847;BME280;43675;50.030;21.952;2024-01-11T16:34:20;99030.56;;;-3.41;77.91
57847;BME280;43675;50.030;21.952;2024-01-11T16:36:47;99028.73;;;-3.42;77.95
57847;BME280;43675;50.030;21.952;2024-01-11T16:39:13;99033.98;;;-3.47;78.07
57847;BME280;43675;50.030;21.952;2024-01-11T16:41:40;99030.63;;;-3.51;78.43
57847;BME280;43675;50.030;21.952;2024-01-11T16:44:12;99028.14;;;-3.55;78.60
57847;BME280;43675;50.030;21.952;2024-01-11T16:49:23;99023.59;;;-3.39;78.89
57847;BME280;43675;50.030;21.952;2024-01-11T16:51:50;99019.30;;;-3.38;78.84
57847;BME280;43675;50.030;21.952;2024-01-11T16:54:17;99021.56;;;-3.40;79.04
57847;BME280;43675;50.030;21.952;2024-01-11T16:56:47;99022.12;;;-3.38;78.95
57847;BME280;43675;50.030;21.952;2024-01-11T16:59:16;99012.86;;;-3.25;78.79
57847;BME280;43675;50.030;21.952;2024-01-11T17:01:45;99006.05;;;-3.10;78.82
57847;BME280;43675;50.030;21.952;2024-01-11T17:04:14;99005.98;;;-3.00;78.39
57847;BME280;43675;50.030;21.952;2024-01-11T17:06:50;99004.78;;;-3.07;78.05
57847;BME280;43675;50.030;21.952;2024-01-11T17:09:16;99006.84;;;-3.15;78.37
57847;BME280;43675;50.030;21.952;2024-01-11T17:11:43;99015.94;;;-3.08;78.31
57847;BME280;43675;50.030;21.952;2024-01-11T17:14:12;99018.90;;;-3.08;78.32
57847;BME280;43675;50.030;21.952;2024-01-11T17:16:39;99025.44;;;-3.18;78.49
57847;BME280;43675;50.030;21.952;2024-01-11T17:19:14;99033.79;;;-3.24;78.79
57847;BME280;43675;50.030;21.952;2024-01-11T17:21:40;99030.16;;;-3.31;79.01
57847;BME280;43675;50.030;21.952;2024-01-11T17:24:07;99034.98;;;-3.35;79.25
57847;BME280;43675;50.030;21.952;2024-01-11T17:26:39;99039.41;;;-3.38;79.23
57847;BME280;43675;50.030;21.952;2024-01-11T17:29:09;99038.14;;;-3.39;79.46
57847;BME280;43675;50.030;21.952;2024-01-11T17:31:36;99041.33;;;-3.38;79.57
57847;BME280;43675;50.030;21.952;2024-01-11T17:34:05;99043.55;;;-3.37;79.75
57847;BME280;43675;50.030;21.952;2024-01-11T17:36:32;99041.67;;;-3.38;79.94
57847;BME280;43675;50.030;21.952;2024-01-11T17:39:02;99039.16;;;-3.39;80.05
57847;BME280;43675;50.030;21.952;2024-01-11T17:41:28;99041.09;;;-3.39;79.98
57847;BME280;43675;50.030;21.952;2024-01-11T17:43:55;99035.48;;;-3.39;80.20
57847;BME280;43675;50.030;21.952;2024-01-11T17:46:29;99036.09;;;-3.40;80.21
57847;BME280;43675;50.030;21.952;2024-01-11T17:49:09;99029.27;;;-3.40;80.40
57847;BME280;43675;50.030;21.952;2024-01-11T17:51:41;99032.92;;;-3.38;80.29
57847;BME280;43675;50.030;21.952;2024-01-11T17:54:17;99032.23;;;-3.33;80.52
57847;BME280;43675;50.030;21.952;2024-01-11T17:56:45;99041.05;;;-3.32;80.34
57847;BME280;43675;50.030;21.952;2024-01-11T17:59:12;99046.90;;;-3.33;80.52
57847;BME280;43675;50.030;21.952;2024-01-11T18:01:39;99050.46;;;-3.34;80.60
57847;BME280;43675;50.030;21.952;2024-01-11T18:04:06;99055.86;;;-3.27;80.47
57847;BME280;43675;50.030;21.952;2024-01-11T18:06:55;99065.45;;;-3.31;80.45
57847;BME280;43675;50.030;21.952;2024-01-11T18:09:24;99062.65;;;-3.35;80.72
57847;BME280;43675;50.030;21.952;2024-01-11T18:11:55;99065.56;;;-3.37;80.69
57847;BME280;43675;50.030;21.952;2024-01-11T18:14:22;99069.66;;;-3.40;80.90
57847;BME280;43675;50.030;21.952;2024-01-11T18:16:49;99073.81;;;-3.44;80.94
57847;BME280;43675;50.030;21.952;2024-01-11T18:19:33;99068.24;;;-3.49;81.14
57847;BME280;43675;50.030;21.952;2024-01-11T18:22:15;99072.16;;;-3.49;80.98
57847;BME280;43675;50.030;21.952;2024-01-11T18:25:04;99058.77;;;-3.48;81.02
57847;BME280;43675;50.030;21.952;2024-01-11T18:27:29;99051.62;;;-3.46;80.97
57847;BME280;43675;50.030;21.952;2024-01-11T18:30:03;99044.45;;;-3.46;80.93
57847;BME280;43675;50.030;21.952;2024-01-11T18:32:30;99042.67;;;-3.46;81.10
57847;BME280;43675;50.030;21.952;2024-01-11T18:34:57;99038.11;;;-3.46;81.23
57847;BME280;43675;50.030;21.952;2024-01-11T18:37:26;99041.04;;;-3.45;81.19
57847;BME280;43675;50.030;21.952;2024-01-11T18:39:58;99037.01;;;-3.45;81.38
57847;BME280;43675;50.030;21.952;2024-01-11T18:42:47;99034.52;;;-3.45;81.27
57847;BME280;43675;50.030;21.952;2024-01-11T18:45:17;99038.31;;;-3.42;81.32
57847;BME280;43675;50.030;21.952;2024-01-11T18:48:14;99040.30;;;-3.38;81.48
57847;BME280;43675;50.030;21.952;2024-01-11T18:50:41;99029.85;;;-3.21;81.42
57847;BME280;43675;50.030;21.952;2024-01-11T18:53:16;99027.15;;;-3.17;81.14
57847;BME280;43675;50.030;21.952;2024-01-11T18:58:53;99033.78;;;-3.04;81.12
57847;BME280;43675;50.030;21.952;2024-01-11T19:07:27;99043.59;;;-2.93;80.48
57847;BME280;43675;50.030;21.952;2024-01-11T19:16:10;99027.27;;;-3.10;80.98
57847;BME280;43675;50.030;21.952;2024-01-11T19:18:39;99023.73;;;-2.93;80.65
57847;BME280;43675;50.030;21.952;2024-01-11T19:21:09;99028.21;;;-2.80;80.26
57847;BME280;43675;50.030;21.952;2024-01-11T19:23:58;99024.98;;;-2.81;80.23
57847;BME280;43675;50.030;21.952;2024-01-11T19:29:57;99028.55;;;-2.96;80.62
57847;BME280;43675;50.030;21.952;2024-01-11T19:35:39;99028.31;;;-2.95;80.62
57847;BME280;43675;50.030;21.952;2024-01-11T19:38:16;99023.75;;;-2.93;80.76
57847;BME280;43675;50.030;21.952;2024-01-11T19:41:06;99034.42;;;-2.81;80.94
57847;BME280;43675;50.030;21.952;2024-01-11T19:43:53;99026.60;;;-2.82;81.08
57847;BME280;43675;50.030;21.952;2024-01-11T19:46:58;99033.12;;;-2.85;81.37
57847;BME280;43675;50.030;21.952;2024-01-11T19:52:15;99017.42;;;-2.64;81.15
57847;BME280;43675;50.030;21.952;2024-01-11T19:54:42;99009.34;;;-2.53;80.81
57847;BME280;43675;50.030;21.952;2024-01-11T19:57:18;99012.31;;;-2.44;80.43
57847;BME280;43675;50.030;21.952;2024-01-11T19:59:45;99004.92;;;-2.37;80.09
57847;BME280;43675;50.030;21.952;2024-01-11T20:02:14;99012.99;;;-2.33;80.10
57847;BME280;43675;50.030;21.952;2024-01-11T20:07:25;99015.80;;;-2.44;79.95
57847;BME280;43675;50.030;21.952;2024-01-11T20:09:55;99021.11;;;-2.55;79.89
57847;BME280;43675;50.030;21.952;2024-01-11T20:12:30;99013.54;;;-2.63;80.49
57847;BME280;43675;50.030;21.952;2024-01-11T20:14:57;99008.30;;;-2.68;80.53
57847;BME280;43675;50.030;21.952;2024-01-11T20:17:26;99014.48;;;-2.71;80.53
57847;BME280;43675;50.030;21.952;2024-01-11T20:19:53;99024.35;;;-2.74;80.72
57847;BME280;43675;50.030;21.952;2024-01-11T20:25:00;99032.61;;;-2.78;80.90
57847;BME280;43675;50.030;21.952;2024-01-11T20:27:30;99034.47;;;-2.80;81.17